CheckWX is a tool to help pilots better visualize weather data.  It is not intended as a substitute for an official pre-flight weather briefing.

03:47:40 UTC

KCVB METAR
Castroville Municipal Airport
Castroville, Texas, USA
Current

33 mins ago

KCVB 270315Z AUTO 12010G16KT 10SM CLR 26/18 A3000 RMK AO2 T02550180
Observed
May-27 @ 03:15 UTC
Wind
  • 120° at 10 KTS
  • Gusting to 16 KTS
Visibility
10 SM
Flight Rules
VFR
Cloud Levels
  • Clear skies
Temperature
26°C / 79°F
Dewpoint
18°C / 64°F
Humidity
61%
Altimeter
30" Hg
Pressure
1015.92 hPa
Previous

53 mins ago

KCVB 270255Z AUTO 12007KT 7SM CLR 26/18 A3000 RMK AO2 T02560179
Observed
May-27 @ 02:55 UTC
Wind
  • 120° at 7 KTS
Visibility
7 SM
Flight Rules
VFR
Cloud Levels
  • Clear skies
Temperature
26°C / 79°F
Dewpoint
18°C / 64°F
Humidity
61%
Altimeter
30" Hg
Pressure
1015.92 hPa
Previous

1 hour ago

KCVB 270235Z AUTO 12007KT 7SM CLR 26/18 A3000 RMK AO2 T02620178
Observed
May-27 @ 02:35 UTC
Wind
  • 120° at 7 KTS
Visibility
7 SM
Flight Rules
VFR
Cloud Levels
  • Clear skies
Temperature
26°C / 79°F
Dewpoint
18°C / 64°F
Humidity
61%
Altimeter
30" Hg
Pressure
1015.92 hPa